createdAt,value
2018-09-26T00:02:20.040Z,97510.04
2018-09-26T00:04:51.963Z,97508.08
2018-09-26T00:07:21.054Z,97513.78
2018-09-26T00:09:50.216Z,97514.02
2018-09-26T00:12:19.296Z,97517.45
2018-09-26T00:14:48.389Z,97523.80
2018-09-26T00:17:17.668Z,97524.95
2018-09-26T00:19:46.826Z,97522.13
2018-09-26T00:22:15.893Z,97516.20
2018-09-26T00:24:44.942Z,97516.84
2018-09-26T00:27:13.999Z,97509.31
2018-09-26T00:29:43.135Z,97499.53
2018-09-26T00:32:12.233Z,97499.11
2018-09-26T00:34:41.383Z,97493.19
2018-09-26T00:37:10.537Z,97487.56
2018-09-26T00:39:39.771Z,97482.48
2018-09-26T00:42:08.943Z,97473.40
2018-09-26T00:44:38.060Z,97472.38
2018-09-26T00:47:07.187Z,97473.13
2018-09-26T00:49:36.359Z,97459.56
2018-09-26T00:52:05.437Z,97453.03
2018-09-26T00:54:34.515Z,97459.80
2018-09-26T00:57:03.585Z,97473.42
2018-09-26T00:59:32.649Z,97477.61
2018-09-26T01:02:01.749Z,97461.38
2018-09-26T01:04:30.822Z,97440.14
2018-09-26T01:06:59.864Z,97440.75
2018-09-26T01:09:29.153Z,97435.66
2018-09-26T01:11:58.205Z,97442.20
2018-09-26T01:14:27.360Z,97439.58
2018-09-26T01:16:56.412Z,97432.13
2018-09-26T01:19:25.500Z,97427.11
2018-09-26T01:21:54.677Z,97417.45
2018-09-26T01:24:23.754Z,97414.12
2018-09-26T01:26:52.912Z,97412.49
2018-09-26T01:29:22.076Z,97407.69
2018-09-26T01:31:51.128Z,97400.40
2018-09-26T01:34:20.312Z,97404.14
2018-09-26T01:36:49.383Z,97400.31
2018-09-26T01:39:18.516Z,97389.56
2018-09-26T01:41:48.580Z,97386.16
2018-09-26T01:44:17.776Z,97376.89
2018-09-26T01:46:46.861Z,97376.79
2018-09-26T01:49:16.227Z,97375.97
2018-09-26T01:51:45.356Z,97375.34
2018-09-26T01:54:14.508Z,97376.48
2018-09-26T01:56:43.652Z,97375.45
2018-09-26T01:59:12.861Z,97376.06
2018-09-26T02:01:41.924Z,97369.73
2018-09-26T02:04:11.099Z,97375.77
2018-09-26T02:06:40.178Z,97376.78
2018-09-26T02:09:11.020Z,97373.77
2018-09-26T02:11:40.256Z,97377.43
2018-09-26T02:14:09.418Z,97368.88
2018-09-26T02:16:38.627Z,97367.95
2018-09-26T02:19:07.765Z,97366.09
2018-09-26T02:21:36.851Z,97367.53
2018-09-26T02:24:05.991Z,97359.13
2018-09-26T02:26:35.118Z,97359.84
2018-09-26T02:29:04.249Z,97365.89
2018-09-26T02:31:33.326Z,97362.34
2018-09-26T02:34:02.477Z,97367.25
2018-09-26T02:36:31.648Z,97367.66
2018-09-26T02:39:00.778Z,97362.36
2018-09-26T02:41:29.872Z,97362.45
2018-09-26T02:43:59.013Z,97361.94
2018-09-26T02:46:28.077Z,97358.39
2018-09-26T02:49:02.541Z,97365.77
2018-09-26T02:51:31.916Z,97362.03
2018-09-26T02:54:00.981Z,97368.05
2018-09-26T02:56:30.147Z,97359.09
2018-09-26T02:58:59.229Z,97360.78
2018-09-26T03:01:28.339Z,97357.14
2018-09-26T03:03:57.505Z,97351.84
2018-09-26T03:06:26.657Z,97345.08
2018-09-26T03:08:55.842Z,97342.89
2018-09-26T03:11:24.893Z,97336.67
2018-09-26T03:13:54.101Z,97338.97
2018-09-26T03:16:23.196Z,97328.48
2018-09-26T03:18:52.292Z,97333.53
2018-09-26T03:21:21.944Z,97330.95
2018-09-26T03:23:51.053Z,97338.55
2018-09-26T03:26:20.203Z,97341.58
2018-09-26T03:28:49.285Z,97340.00
2018-09-26T03:31:18.452Z,97332.28
2018-09-26T03:33:47.695Z,97338.09
2018-09-26T03:36:16.660Z,97348.06
2018-09-26T03:38:45.780Z,97351.41
2018-09-26T03:41:14.914Z,97354.80
2018-09-26T03:43:43.985Z,97350.58
2018-09-26T03:46:13.046Z,97352.25
2018-09-26T03:48:42.265Z,97336.88
2018-09-26T03:51:11.344Z,97332.18
2018-09-26T03:53:40.488Z,97331.15
2018-09-26T03:56:09.657Z,97338.09
2018-09-26T03:58:38.779Z,97327.20
2018-09-26T04:01:07.953Z,97326.95
2018-09-26T04:03:37.017Z,97323.88
2018-09-26T04:06:06.285Z,97326.39
2018-09-26T04:08:35.377Z,97328.13
2018-09-26T04:11:04.453Z,97327.89
2018-09-26T04:13:33.505Z,97326.63
2018-09-26T04:16:02.584Z,97320.02
2018-09-26T04:18:32.321Z,97324.68
2018-09-26T04:21:01.413Z,97328.50
2018-09-26T04:23:30.533Z,97331.42
2018-09-26T04:25:59.625Z,97330.27
2018-09-26T04:28:28.745Z,97327.65
2018-09-26T04:30:57.925Z,97322.98
2018-09-26T04:33:26.993Z,97333.89
2018-09-26T04:35:56.102Z,97335.38
2018-09-26T04:38:25.273Z,97330.68
2018-09-26T04:40:54.316Z,97321.65
2018-09-26T04:43:23.493Z,97313.36
2018-09-26T04:45:52.532Z,97317.41
2018-09-26T04:48:21.739Z,97320.02
2018-09-26T04:50:50.914Z,97318.25
2018-09-26T04:53:20.016Z,97314.61
2018-09-26T04:55:49.147Z,97316.48
2018-09-26T04:58:18.291Z,97306.73
2018-09-26T05:00:47.380Z,97306.00
2018-09-26T05:03:16.468Z,97311.17
2018-09-26T05:05:45.582Z,97321.47
2018-09-26T05:08:14.722Z,97323.56
2018-09-26T05:10:43.799Z,97329.38
2018-09-26T05:13:12.954Z,97338.84
2018-09-26T05:15:42.020Z,97342.61
2018-09-26T05:18:11.099Z,97334.78
2018-09-26T05:20:40.207Z,97332.92
2018-09-26T05:23:09.413Z,97333.02
2018-09-26T05:25:38.609Z,97335.30
2018-09-26T05:28:07.719Z,97339.87
2018-09-26T05:30:36.864Z,97346.75
2018-09-26T05:33:06.297Z,97346.53
2018-09-26T05:35:35.435Z,97356.72
2018-09-26T05:38:04.689Z,97359.70
2018-09-26T05:40:33.889Z,97358.77
2018-09-26T05:43:03.093Z,97359.38
2018-09-26T05:45:32.283Z,97357.83
2018-09-26T05:48:01.482Z,97362.83
2018-09-26T05:50:30.709Z,97366.36
2018-09-26T05:52:59.757Z,97373.45
2018-09-26T05:55:28.888Z,97378.25
2018-09-26T05:57:57.976Z,97374.09
2018-09-26T06:00:27.096Z,97372.01
2018-09-26T06:02:56.273Z,97368.79
2018-09-26T06:05:25.447Z,97365.79
2018-09-26T06:07:54.700Z,97365.16
2018-09-26T06:10:23.884Z,97360.17
2018-09-26T06:12:52.959Z,97363.09
2018-09-26T06:15:22.084Z,97358.93
2018-09-26T06:17:51.248Z,97366.94
2018-09-26T06:20:20.463Z,97378.17
2018-09-26T06:22:49.528Z,97378.87
2018-09-26T06:25:18.697Z,97375.03
2018-09-26T06:27:47.756Z,97372.75
2018-09-26T06:30:17.018Z,97383.77
2018-09-26T06:32:46.124Z,97389.77
2018-09-26T06:35:15.207Z,97397.66
2018-09-26T06:37:44.319Z,97400.34
2018-09-26T06:40:13.535Z,97405.48
2018-09-26T06:42:42.617Z,97396.22
2018-09-26T06:45:11.713Z,97408.36
2018-09-26T06:47:40.859Z,97402.00
2018-09-26T06:50:09.960Z,97395.36
2018-09-26T06:52:39.035Z,97393.98
2018-09-26T06:55:08.097Z,97391.99
2018-09-26T06:57:37.326Z,97396.09
2018-09-26T07:00:07.028Z,97401.80
2018-09-26T07:02:36.068Z,97408.89
2018-09-26T07:05:05.161Z,97406.47
2018-09-26T07:07:34.301Z,97404.00
2018-09-26T07:10:03.369Z,97393.05
2018-09-26T07:12:32.492Z,97389.41
2018-09-26T07:15:01.557Z,97385.39
2018-09-26T07:17:30.675Z,97376.39
2018-09-26T07:19:59.742Z,97375.36
2018-09-26T07:22:28.824Z,97374.95
2018-09-26T07:24:57.928Z,97366.89
2018-09-26T07:27:27.046Z,97354.28
2018-09-26T07:29:56.136Z,97354.45
2018-09-26T07:32:25.233Z,97360.94
2018-09-26T07:34:54.360Z,97363.13
2018-09-26T07:37:23.540Z,97361.28
2018-09-26T07:39:52.719Z,97352.55
2018-09-26T07:42:21.841Z,97350.53
2018-09-26T07:44:51.004Z,97350.77
2018-09-26T07:47:20.112Z,97350.16
2018-09-26T07:49:49.207Z,97363.97
2018-09-26T07:52:18.309Z,97360.29
2018-09-26T07:54:47.388Z,97355.05
2018-09-26T07:57:16.470Z,97356.94
2018-09-26T07:59:45.652Z,97362.31
2018-09-26T08:02:14.748Z,97366.30
2018-09-26T08:04:43.976Z,97372.02
2018-09-26T08:07:13.067Z,97367.63
2018-09-26T08:09:42.179Z,97373.66
2018-09-26T08:12:11.256Z,97368.15
2018-09-26T08:14:40.349Z,97362.19
2018-09-26T08:17:09.551Z,97358.58
2018-09-26T08:19:38.657Z,97373.16
2018-09-26T08:22:07.717Z,97369.36
2018-09-26T08:24:36.949Z,97365.70
2018-09-26T08:27:06.162Z,97374.21
2018-09-26T08:29:35.265Z,97372.03
2018-09-26T08:32:04.341Z,97365.92
2018-09-26T08:34:33.444Z,97360.42
2018-09-26T08:37:02.519Z,97366.59
2018-09-26T08:39:31.632Z,97377.66
2018-09-26T08:42:00.814Z,97365.45
2018-09-26T08:44:30.090Z,97368.35
2018-09-26T08:46:59.220Z,97372.09
2018-09-26T08:49:28.344Z,97377.36
2018-09-26T08:51:57.459Z,97372.44
2018-09-26T08:54:26.628Z,97365.44
2018-09-26T08:56:56.027Z,97373.56
2018-09-26T08:59:25.195Z,97375.80
2018-09-26T09:01:54.316Z,97377.38
2018-09-26T09:04:23.495Z,97380.80
2018-09-26T09:06:52.602Z,97378.11
2018-09-26T09:09:21.677Z,97380.95
2018-09-26T09:11:50.793Z,97380.39
2018-09-26T09:14:19.916Z,97372.66
2018-09-26T09:16:49.287Z,97369.14
2018-09-26T09:19:18.371Z,97369.07
2018-09-26T09:21:47.485Z,97372.80
2018-09-26T09:24:16.555Z,97371.68
2018-09-26T09:26:45.681Z,97374.38
2018-09-26T09:29:14.775Z,97358.38
2018-09-26T09:31:43.881Z,97354.70
2018-09-26T09:34:12.955Z,97351.05
2018-09-26T09:36:42.134Z,97350.38
2018-09-26T09:39:11.287Z,97350.34
2018-09-26T09:41:40.455Z,97347.37
2018-09-26T09:44:09.576Z,97347.99
2018-09-26T09:46:38.772Z,97346.84
2018-09-26T09:49:07.925Z,97344.67
2018-09-26T09:51:37.068Z,97341.37
2018-09-26T09:54:06.303Z,97346.78
2018-09-26T09:56:35.401Z,97347.07
2018-09-26T09:59:04.503Z,97341.91
2018-09-26T10:01:33.693Z,97336.24
2018-09-26T10:04:02.804Z,97340.91
2018-09-26T10:06:31.908Z,97340.42
2018-09-26T10:09:01.018Z,97344.34
2018-09-26T10:11:30.112Z,97342.98
2018-09-26T10:13:59.208Z,97348.30
2018-09-26T10:16:28.289Z,97348.61
2018-09-26T10:18:57.496Z,97349.56
2018-09-26T10:21:26.596Z,97343.99
2018-09-26T10:23:55.716Z,97347.90
2018-09-26T10:26:24.857Z,97339.27
2018-09-26T10:28:53.916Z,97341.02
2018-09-26T10:31:23.003Z,97341.82
2018-09-26T10:33:52.166Z,97347.78
2018-09-26T10:36:21.343Z,97341.91
2018-09-26T10:38:50.675Z,97346.81
2018-09-26T10:41:19.848Z,97345.94
2018-09-26T10:43:48.951Z,97343.20
2018-09-26T10:46:18.045Z,97357.84
2018-09-26T10:48:47.207Z,97353.52
2018-09-26T10:51:16.340Z,97351.03
2018-09-26T10:53:45.450Z,97349.66
2018-09-26T10:56:14.664Z,97348.56
2018-09-26T10:58:43.811Z,97347.77
2018-09-26T11:01:13.007Z,97347.48
2018-09-26T11:03:42.107Z,97359.05
2018-09-26T11:06:11.235Z,97360.44
2018-09-26T11:08:40.394Z,97353.84
2018-09-26T11:11:09.521Z,97352.44
2018-09-26T11:13:38.693Z,97343.22
2018-09-26T11:16:08.025Z,97351.25
2018-09-26T11:18:37.052Z,97343.77
2018-09-26T11:21:06.876Z,97343.55
2018-09-26T11:23:35.905Z,97340.42
2018-09-26T11:26:05.051Z,97331.56
2018-09-26T11:28:34.100Z,97328.98
2018-09-26T11:31:03.305Z,97322.41
2018-09-26T11:33:32.560Z,97326.63
2018-09-26T11:36:01.901Z,97324.16
2018-09-26T11:38:30.984Z,97329.55
2018-09-26T11:41:00.150Z,97333.80
2018-09-26T11:43:29.464Z,97331.53
2018-09-26T11:45:58.629Z,97333.72
2018-09-26T11:48:27.768Z,97327.35
2018-09-26T11:50:56.893Z,97325.13
2018-09-26T11:53:26.068Z,97325.93
2018-09-26T11:55:55.303Z,97326.25
2018-09-26T11:58:24.394Z,97323.23
2018-09-26T12:00:53.599Z,97316.56
2018-09-26T12:03:22.667Z,97325.19
2018-09-26T12:05:51.748Z,97320.34
2018-09-26T12:08:20.951Z,97312.63
2018-09-26T12:10:49.976Z,97314.20
2018-09-26T12:13:19.087Z,97300.89
2018-09-26T12:15:48.235Z,97304.03
2018-09-26T12:18:17.335Z,97301.11
2018-09-26T12:20:46.389Z,97302.68
2018-09-26T12:23:15.641Z,97305.58
2018-09-26T12:25:44.733Z,97299.61
2018-09-26T12:28:13.943Z,97306.75
2018-09-26T12:30:43.023Z,97302.48
2018-09-26T12:33:12.717Z,97296.00
2018-09-26T12:35:41.786Z,97291.70
2018-09-26T12:38:10.926Z,97287.17
2018-09-26T12:40:40.029Z,97292.33
2018-09-26T12:43:09.153Z,97292.34
2018-09-26T12:45:38.293Z,97296.33
2018-09-26T12:48:07.788Z,97291.16
2018-09-26T12:50:36.887Z,97289.03
2018-09-26T12:53:06.313Z,97291.05
2018-09-26T12:55:35.757Z,97295.47
2018-09-26T12:58:05.095Z,97291.48
2018-09-26T13:00:34.299Z,97292.14
2018-09-26T13:03:03.377Z,97290.55
2018-09-26T13:05:32.528Z,97295.13
2018-09-26T13:08:01.694Z,97288.33
2018-09-26T13:10:30.781Z,97281.80
2018-09-26T13:12:59.924Z,97277.52
2018-09-26T13:15:29.268Z,97280.25
2018-09-26T13:17:58.328Z,97279.14
2018-09-26T13:20:27.460Z,97280.22
2018-09-26T13:22:56.490Z,97280.78
2018-09-26T13:25:25.610Z,97273.67
2018-09-26T13:27:54.656Z,97279.55
2018-09-26T13:30:23.834Z,97272.66
2018-09-26T13:32:52.828Z,97277.22
2018-09-26T13:35:22.030Z,97279.31
2018-09-26T13:37:51.166Z,97277.29
2018-09-26T13:40:20.385Z,97270.44
2018-09-26T13:42:49.524Z,97272.85
2018-09-26T13:45:18.664Z,97276.77
2018-09-26T13:47:47.731Z,97267.25
2018-09-26T13:50:17.075Z,97267.20
2018-09-26T13:52:46.081Z,97277.16
2018-09-26T13:55:15.437Z,97272.77
2018-09-26T13:57:44.502Z,97273.04
2018-09-26T14:00:16.569Z,97268.30
2018-09-26T14:02:46.500Z,97276.86
2018-09-26T14:05:15.603Z,97263.44
2018-09-26T14:07:44.674Z,97256.38
2018-09-26T14:10:13.765Z,97250.39
2018-09-26T14:12:49.722Z,97245.00
2018-09-26T14:15:18.865Z,97245.16
2018-09-26T14:17:47.920Z,97248.00
2018-09-26T14:20:17.141Z,97251.24
2018-09-26T14:22:46.314Z,97243.61
2018-09-26T14:25:15.299Z,97248.55
2018-09-26T14:27:44.498Z,97246.66
2018-09-26T14:30:13.594Z,97246.30
2018-09-26T14:32:42.639Z,97239.55
2018-09-26T14:35:11.778Z,97235.16
2018-09-26T14:37:40.815Z,97234.89
2018-09-26T14:40:10.337Z,97235.27
2018-09-26T14:42:39.831Z,97231.66
2018-09-26T14:45:09.124Z,97230.36
2018-09-26T14:47:38.113Z,97229.11
2018-09-26T14:50:07.877Z,97226.61
2018-09-26T14:52:37.035Z,97227.59
2018-09-26T14:55:06.192Z,97227.84
2018-09-26T14:57:35.285Z,97227.11
2018-09-26T15:00:04.614Z,97221.72
2018-09-26T15:02:33.800Z,97217.64
2018-09-26T15:05:02.880Z,97220.89
2018-09-26T15:07:31.984Z,97214.23
2018-09-26T15:10:01.076Z,97209.89
2018-09-26T15:12:30.263Z,97212.83
2018-09-26T15:14:59.354Z,97205.88
2018-09-26T15:17:28.540Z,97202.02
2018-09-26T15:19:57.659Z,97204.63
2018-09-26T15:22:26.847Z,97202.67
2018-09-26T15:24:56.001Z,97201.40
2018-09-26T15:27:25.177Z,97203.49
2018-09-26T15:29:54.265Z,97198.42
2018-09-26T15:32:23.601Z,97198.83
2018-09-26T15:34:52.642Z,97194.15
2018-09-26T15:37:21.721Z,97191.06
2018-09-26T15:39:50.957Z,97184.73
2018-09-26T15:42:20.110Z,97189.73
2018-09-26T15:44:49.123Z,97190.70
2018-09-26T15:47:18.204Z,97191.81
2018-09-26T15:49:47.336Z,97193.32
2018-09-26T15:52:16.420Z,97183.03
2018-09-26T15:54:45.561Z,97179.95
2018-09-26T15:57:14.700Z,97180.52
2018-09-26T15:59:43.840Z,97180.03
2018-09-26T16:02:13.028Z,97184.20
2018-09-26T16:04:42.067Z,97182.65
2018-09-26T16:07:11.155Z,97188.06
2018-09-26T16:09:40.371Z,97186.92
2018-09-26T16:12:09.528Z,97193.16
2018-09-26T16:14:38.597Z,97189.75
2018-09-26T16:17:07.689Z,97192.51
2018-09-26T16:19:36.990Z,97188.71
2018-09-26T16:22:06.101Z,97191.82
2018-09-26T16:24:35.296Z,97192.97
2018-09-26T16:27:04.380Z,97195.13
2018-09-26T16:29:33.460Z,97200.23
2018-09-26T16:32:02.704Z,97203.09
2018-09-26T16:34:31.832Z,97199.46
2018-09-26T16:37:00.964Z,97196.05
2018-09-26T16:39:30.188Z,97194.78
2018-09-26T16:41:59.266Z,97187.94
2018-09-26T16:44:28.448Z,97189.03
2018-09-26T16:46:57.589Z,97185.72
2018-09-26T16:49:26.674Z,97195.52
2018-09-26T16:51:55.841Z,97183.92
2018-09-26T16:54:25.048Z,97184.19
2018-09-26T16:56:54.204Z,97189.95
2018-09-26T16:59:23.313Z,97193.19
2018-09-26T17:01:52.445Z,97193.43
2018-09-26T17:04:21.596Z,97196.28
2018-09-26T17:06:50.645Z,97194.47
2018-09-26T17:09:19.709Z,97197.81
2018-09-26T17:11:48.800Z,97207.73
2018-09-26T17:14:18.006Z,97212.69
2018-09-26T17:16:47.100Z,97212.16
2018-09-26T17:19:16.349Z,97207.78
2018-09-26T17:21:45.392Z,97208.59
2018-09-26T17:24:14.609Z,97212.22
2018-09-26T17:26:43.789Z,97211.44
2018-09-26T17:29:12.953Z,97214.98
2018-09-26T17:31:42.069Z,97219.95
2018-09-26T17:34:11.491Z,97214.98
2018-09-26T17:36:40.565Z,97222.67
2018-09-26T17:39:10.085Z,97222.42
2018-09-26T17:41:39.784Z,97217.74
2018-09-26T17:44:09.455Z,97222.14
2018-09-26T17:46:38.642Z,97218.73
2018-09-26T17:49:07.747Z,97225.97
2018-09-26T17:51:36.833Z,97225.31
2018-09-26T17:54:05.969Z,97224.48
2018-09-26T17:56:35.045Z,97233.16
2018-09-26T17:59:04.173Z,97226.91
2018-09-26T18:01:33.290Z,97227.67
2018-09-26T18:04:02.471Z,97224.02
2018-09-26T18:06:31.576Z,97228.10
2018-09-26T18:09:00.784Z,97225.65
2018-09-26T18:11:29.856Z,97229.77
2018-09-26T18:13:58.972Z,97226.35
2018-09-26T18:16:28.068Z,97228.02
2018-09-26T18:18:57.214Z,97233.29
2018-09-26T18:21:26.316Z,97234.87
2018-09-26T18:23:55.692Z,97230.39
2018-09-26T18:26:24.767Z,97236.43
2018-09-26T18:28:53.868Z,97235.54
2018-09-26T18:31:22.997Z,97241.08
2018-09-26T18:33:52.142Z,97248.25
2018-09-26T18:36:21.301Z,97253.48
2018-09-26T18:38:50.667Z,97253.89
2018-09-26T18:41:19.660Z,97258.13
2018-09-26T18:43:48.845Z,97258.96
2018-09-26T18:46:17.926Z,97258.59
2018-09-26T18:48:47.004Z,97257.40
2018-09-26T18:51:16.168Z,97260.49
2018-09-26T18:53:45.280Z,97257.99
2018-09-26T18:56:14.480Z,97263.24
2018-09-26T18:58:43.826Z,97265.76
2018-09-26T19:01:12.957Z,97269.87
2018-09-26T19:03:42.073Z,97266.80
2018-09-26T19:06:11.245Z,97265.34
2018-09-26T19:08:41.273Z,97268.77
2018-09-26T19:11:10.387Z,97270.95
2018-09-26T19:13:39.517Z,97273.77
2018-09-26T19:16:08.788Z,97270.43
2018-09-26T19:18:37.864Z,97271.47
2018-09-26T19:21:07.059Z,97268.58
2018-09-26T19:23:36.744Z,97268.27
2018-09-26T19:26:05.949Z,97268.12
2018-09-26T19:28:35.061Z,97271.80
2018-09-26T19:31:04.193Z,97260.52
2018-09-26T19:33:33.385Z,97265.79
2018-09-26T19:36:02.517Z,97270.77
2018-09-26T19:38:31.665Z,97274.24
2018-09-26T19:41:00.761Z,97274.14
2018-09-26T19:43:29.921Z,97278.28
2018-09-26T19:45:59.005Z,97279.46
2018-09-26T19:48:28.176Z,97289.28
2018-09-26T19:50:57.363Z,97284.77
2018-09-26T19:53:26.553Z,97287.60
2018-09-26T19:55:55.788Z,97287.97
2018-09-26T19:58:24.909Z,97286.87
2018-09-26T20:00:54.076Z,97290.14
2018-09-26T20:03:23.232Z,97299.22
2018-09-26T20:05:52.420Z,97300.95
2018-09-26T20:08:21.524Z,97301.91
2018-09-26T20:10:50.721Z,97297.41
2018-09-26T20:13:19.852Z,97301.56
2018-09-26T20:15:48.944Z,97297.17
2018-09-26T20:18:18.084Z,97293.88
2018-09-26T20:20:47.296Z,97291.19
2018-09-26T20:23:16.522Z,97290.74
2018-09-26T20:25:45.744Z,97285.72
2018-09-26T20:28:14.981Z,97291.70
2018-09-26T20:30:44.104Z,97289.50
2018-09-26T20:33:13.325Z,97286.50
2018-09-26T20:35:42.397Z,97281.79
2018-09-26T20:38:11.539Z,97290.50
2018-09-26T20:40:40.663Z,97288.33
2018-09-26T20:43:09.903Z,97289.05
2018-09-26T20:45:38.987Z,97290.90
2018-09-26T20:48:08.157Z,97295.23
2018-09-26T20:50:37.253Z,97292.64
2018-09-26T20:53:06.717Z,97288.73
2018-09-26T20:55:36.025Z,97297.59
2018-09-26T20:58:05.377Z,97290.06
2018-09-26T21:00:34.531Z,97291.64
2018-09-26T21:03:03.804Z,97299.02
2018-09-26T21:05:32.960Z,97294.98
2018-09-26T21:08:02.053Z,97291.41
2018-09-26T21:10:31.173Z,97289.34
2018-09-26T21:13:00.262Z,97286.66
2018-09-26T21:15:29.473Z,97275.94
2018-09-26T21:17:58.730Z,97269.97
2018-09-26T21:20:27.747Z,97280.59
2018-09-26T21:22:56.846Z,97266.59
2018-09-26T21:25:26.033Z,97260.80
2018-09-26T21:27:55.101Z,97261.66
2018-09-26T21:30:24.248Z,97260.00
2018-09-26T21:32:53.339Z,97259.94
2018-09-26T21:35:22.565Z,97267.72
2018-09-26T21:37:51.833Z,97256.38
2018-09-26T21:40:21.001Z,97260.62
2018-09-26T21:42:50.116Z,97260.53
2018-09-26T21:45:19.196Z,97253.64
2018-09-26T21:47:48.288Z,97259.09
2018-09-26T21:50:17.387Z,97260.27
2018-09-26T21:52:46.473Z,97256.27
2018-09-26T21:55:15.615Z,97251.81
2018-09-26T21:57:44.795Z,97251.08
2018-09-26T22:00:14.036Z,97252.40
2018-09-26T22:02:43.158Z,97251.77
2018-09-26T22:05:12.270Z,97250.77
2018-09-26T22:07:41.368Z,97246.64
2018-09-26T22:10:10.796Z,97246.38
2018-09-26T22:12:39.947Z,97243.22
2018-09-26T22:15:25.573Z,97244.26
2018-09-26T22:17:55.109Z,97239.03
2018-09-26T22:20:24.184Z,97237.34
2018-09-26T22:22:53.343Z,97235.95
2018-09-26T22:25:22.519Z,97238.18
2018-09-26T22:27:51.655Z,97234.83
2018-09-26T22:30:20.731Z,97244.89
2018-09-26T22:32:49.827Z,97244.89
2018-09-26T22:35:19.004Z,97245.24
2018-09-26T22:37:48.168Z,97241.03
2018-09-26T22:40:17.235Z,97240.40
2018-09-26T22:42:46.328Z,97238.50
2018-09-26T22:45:15.488Z,97233.67
2018-09-26T22:47:44.617Z,97237.37
2018-09-26T22:50:13.804Z,97232.51
2018-09-26T22:52:42.876Z,97230.88
2018-09-26T22:55:12.017Z,97230.55
2018-09-26T22:57:41.196Z,97229.89
2018-09-26T23:00:10.327Z,97224.36
2018-09-26T23:02:39.415Z,97222.97
2018-09-26T23:05:08.631Z,97222.08
2018-09-26T23:07:37.711Z,97218.52
2018-09-26T23:10:06.899Z,97212.89
2018-09-26T23:12:36.048Z,97210.39
2018-09-26T23:15:05.173Z,97217.70
2018-09-26T23:17:34.390Z,97212.95
2018-09-26T23:20:03.539Z,97221.36
2018-09-26T23:22:32.711Z,97217.23
2018-09-26T23:25:01.867Z,97212.63
2018-09-26T23:27:30.983Z,97215.89
2018-09-26T23:30:00.231Z,97217.52
2018-09-26T23:32:29.293Z,97215.36
2018-09-26T23:34:58.397Z,97208.17
2018-09-26T23:37:27.513Z,97213.63
2018-09-26T23:39:56.623Z,97217.52
2018-09-26T23:42:25.710Z,97210.86
2018-09-26T23:44:54.824Z,97204.77
2018-09-26T23:47:23.901Z,97204.77
2018-09-26T23:49:53.021Z,97202.12
2018-09-26T23:52:22.198Z,97194.69
2018-09-26T23:54:51.287Z,97191.86
2018-09-26T23:57:20.400Z,97193.75
2018-09-26T23:59:49.481Z,97190.15
